createdAt,value
2022-12-19T00:00:34.884Z,-4.35
2022-12-19T00:03:03.012Z,-4.46
2022-12-19T00:05:32.227Z,-4.56
2022-12-19T00:08:02.446Z,-4.64
2022-12-19T00:10:40.136Z,-4.53
2022-12-19T00:13:08.027Z,-4.47
2022-12-19T00:15:37.228Z,-4.50
2022-12-19T00:18:11.080Z,-4.45
2022-12-19T00:20:48.420Z,-4.58
2022-12-19T00:23:17.277Z,-4.58
2022-12-19T00:25:48.007Z,-4.57
2022-12-19T00:28:19.666Z,-4.52
2022-12-19T00:30:49.591Z,-4.47
2022-12-19T00:33:23.287Z,-4.40
2022-12-19T00:35:57.986Z,-4.34
2022-12-19T00:38:25.786Z,-4.24
2022-12-19T00:40:53.556Z,-4.17
2022-12-19T00:43:22.187Z,-4.11
2022-12-19T00:45:50.078Z,-4.19
2022-12-19T00:48:17.846Z,-4.14
2022-12-19T00:50:46.890Z,-4.10
2022-12-19T00:53:16.197Z,-4.10
2022-12-19T00:55:43.945Z,-4.07
2022-12-19T00:58:11.723Z,-4.03
2022-12-19T01:00:39.575Z,-4.14
2022-12-19T01:03:10.075Z,-4.24
2022-12-19T01:05:38.833Z,-4.09
2022-12-19T01:08:09.980Z,-4.07
2022-12-19T01:10:39.381Z,-4.10
2022-12-19T01:13:06.130Z,-4.09
2022-12-19T01:15:33.892Z,-4.08
2022-12-19T01:18:01.693Z,-4.02
2022-12-19T01:20:30.138Z,-4.06
2022-12-19T01:23:00.133Z,-4.16
2022-12-19T01:25:28.598Z,-4.25
2022-12-19T01:27:58.466Z,-4.26
2022-12-19T01:30:27.670Z,-4.19
2022-12-19T01:32:58.688Z,-4.19
2022-12-19T01:35:26.874Z,-4.24
2022-12-19T01:38:07.613Z,-4.21
2022-12-19T01:40:36.548Z,-4.24
2022-12-19T01:43:06.669Z,-4.23
2022-12-19T01:45:38.361Z,-4.22
2022-12-19T01:48:18.490Z,-4.18
2022-12-19T01:51:00.798Z,-4.11
2022-12-19T01:53:34.933Z,-4.15
2022-12-19T01:56:08.913Z,-4.20
2022-12-19T01:58:40.993Z,-4.15
2022-12-19T02:01:08.973Z,-4.17
2022-12-19T02:03:38.980Z,-4.16
2022-12-19T02:06:08.161Z,-4.17
2022-12-19T02:08:36.882Z,-4.18
2022-12-19T02:11:04.615Z,-4.09
2022-12-19T02:13:32.697Z,-4.02
2022-12-19T02:16:08.989Z,-4.09
2022-12-19T02:18:49.312Z,-4.11
2022-12-19T02:21:25.724Z,-4.09
2022-12-19T02:24:43.310Z,-4.00
2022-12-19T02:27:56.295Z,-4.02
2022-12-19T02:30:46.395Z,-4.05
2022-12-19T02:33:19.210Z,-4.03
2022-12-19T02:36:03.583Z,-4.04
2022-12-19T02:38:37.726Z,-4.13
2022-12-19T02:41:09.690Z,-4.12
2022-12-19T02:43:43.688Z,-4.12
2022-12-19T02:46:13.769Z,-4.08
2022-12-19T02:48:43.187Z,-4.06
2022-12-19T02:51:11.095Z,-4.02
2022-12-19T02:53:39.730Z,-4.15
2022-12-19T02:56:30.042Z,-4.10
2022-12-19T02:59:14.886Z,-4.11
2022-12-19T03:01:50.242Z,-4.13
2022-12-19T03:04:32.829Z,-4.10
2022-12-19T03:07:04.789Z,-4.15
2022-12-19T03:09:42.086Z,-4.04
2022-12-19T03:12:17.577Z,-4.05
2022-12-19T03:14:48.108Z,-3.94
2022-12-19T03:17:23.166Z,-3.99
2022-12-19T03:19:51.261Z,-3.97
2022-12-19T03:22:19.205Z,-3.98
2022-12-19T03:24:47.113Z,-3.89
2022-12-19T03:27:21.646Z,-3.91
2022-12-19T03:29:57.156Z,-3.91
2022-12-19T03:32:29.388Z,-3.81
2022-12-19T03:35:01.722Z,-3.87
2022-12-19T03:37:33.303Z,-3.85
2022-12-19T03:40:06.267Z,-3.81
2022-12-19T03:42:54.031Z,-3.73
2022-12-19T03:45:29.003Z,-3.72
2022-12-19T03:48:01.373Z,-3.75
2022-12-19T03:50:34.197Z,-3.77
2022-12-19T03:53:13.254Z,-3.75
2022-12-19T03:55:49.173Z,-3.72
2022-12-19T03:58:21.931Z,-3.61
2022-12-19T04:00:53.247Z,-3.67
2022-12-19T04:03:23.683Z,-3.60
2022-12-19T04:05:53.688Z,-3.52
2022-12-19T04:08:22.898Z,-3.65
2022-12-19T04:10:55.664Z,-3.53
2022-12-19T04:13:31.405Z,-3.55
2022-12-19T04:16:07.826Z,-3.48
2022-12-19T04:18:38.690Z,-3.48
2022-12-19T04:21:12.765Z,-3.49
2022-12-19T04:23:44.850Z,-3.56
2022-12-19T04:26:14.893Z,-3.56
2022-12-19T04:28:47.848Z,-3.50
2022-12-19T04:31:17.478Z,-3.49
2022-12-19T04:33:46.664Z,-3.53
2022-12-19T04:36:14.641Z,-3.51
2022-12-19T04:38:42.356Z,-3.49
2022-12-19T04:41:10.423Z,-3.53
2022-12-19T04:43:38.203Z,-3.53
2022-12-19T04:46:06.490Z,-3.62
2022-12-19T04:48:36.366Z,-3.47
2022-12-19T04:51:05.919Z,-3.42
2022-12-19T04:53:34.400Z,-3.38
2022-12-19T04:56:02.948Z,-3.43
2022-12-19T04:58:31.113Z,-3.38
2022-12-19T05:01:02.495Z,-3.37
2022-12-19T05:03:30.371Z,-3.38
2022-12-19T05:06:07.293Z,-3.47
2022-12-19T05:08:36.167Z,-3.46
2022-12-19T05:11:05.422Z,-3.51
2022-12-19T05:13:34.168Z,-3.55
2022-12-19T05:16:03.798Z,-3.52
2022-12-19T05:18:32.337Z,-3.62
2022-12-19T05:21:00.619Z,-3.57
2022-12-19T05:23:29.908Z,-3.49
2022-12-19T05:25:59.401Z,-3.57
2022-12-19T05:28:28.250Z,-3.62
2022-12-19T05:31:03.746Z,-3.56
2022-12-19T05:33:31.922Z,-3.43
2022-12-19T05:35:59.673Z,-3.40
2022-12-19T05:38:29.553Z,-3.30
2022-12-19T05:40:57.430Z,-3.29
2022-12-19T05:43:25.761Z,-3.18
2022-12-19T05:45:53.616Z,-3.10
2022-12-19T05:48:21.452Z,-3.05
2022-12-19T05:50:50.468Z,-3.12
2022-12-19T05:53:21.934Z,-3.09
2022-12-19T05:56:03.763Z,-3.02
2022-12-19T05:58:31.796Z,-3.05
2022-12-19T06:01:03.753Z,-3.18
2022-12-19T06:03:31.806Z,-3.01
2022-12-19T06:06:02.815Z,-3.01
2022-12-19T06:08:30.967Z,-2.96
2022-12-19T06:11:01.664Z,-2.99
2022-12-19T06:13:29.925Z,-2.98
2022-12-19T06:16:00.987Z,-2.93
2022-12-19T06:18:29.456Z,-2.96
2022-12-19T06:21:01.240Z,-2.91
2022-12-19T06:23:30.495Z,-2.87
2022-12-19T06:25:58.553Z,-2.87
2022-12-19T06:28:29.014Z,-2.93
2022-12-19T06:30:57.258Z,-2.71
2022-12-19T06:33:25.179Z,-2.86
2022-12-19T06:35:59.172Z,-2.84
2022-12-19T06:38:27.129Z,-2.69
2022-12-19T06:41:12.440Z,-2.69
2022-12-19T06:43:42.252Z,-2.67
2022-12-19T06:46:10.790Z,-2.58
2022-12-19T06:48:38.849Z,-2.66
2022-12-19T06:51:07.440Z,-2.60
2022-12-19T06:53:35.429Z,-2.65
2022-12-19T06:56:03.436Z,-2.66
2022-12-19T06:58:31.536Z,-2.56
2022-12-19T07:01:01.427Z,-2.66
2022-12-19T07:03:32.924Z,-2.53
2022-12-19T07:06:00.670Z,-2.62
2022-12-19T07:08:29.567Z,-2.56
2022-12-19T07:10:57.645Z,-2.54
2022-12-19T07:13:25.896Z,-2.44
2022-12-19T07:15:55.705Z,-2.46
2022-12-19T07:18:25.004Z,-2.46
2022-12-19T07:20:53.122Z,-2.46
2022-12-19T07:23:23.154Z,-2.35
2022-12-19T07:25:51.656Z,-2.36
2022-12-19T07:28:19.998Z,-2.27
2022-12-19T07:30:50.029Z,-2.29
2022-12-19T07:33:21.444Z,-2.23
2022-12-19T07:35:52.267Z,-2.18
2022-12-19T07:38:21.051Z,-2.19
2022-12-19T07:40:48.894Z,-2.17
2022-12-19T07:43:16.930Z,-2.09
2022-12-19T07:45:45.103Z,-2.04
2022-12-19T07:48:13.113Z,-1.97
2022-12-19T07:50:41.766Z,-1.92
2022-12-19T07:53:11.156Z,-1.88
2022-12-19T07:55:39.229Z,-1.90
2022-12-19T07:58:09.499Z,-1.75
2022-12-19T08:00:38.867Z,-1.75
2022-12-19T08:03:07.053Z,-1.73
2022-12-19T08:05:35.869Z,-1.63
2022-12-19T08:08:04.266Z,-1.61
2022-12-19T08:10:33.757Z,-1.71
2022-12-19T08:13:01.695Z,-1.60
2022-12-19T08:15:29.679Z,-1.63
2022-12-19T08:17:57.762Z,-1.65
2022-12-19T08:20:25.689Z,-1.59
2022-12-19T08:22:53.915Z,-1.62
2022-12-19T08:25:22.159Z,-1.52
2022-12-19T08:27:51.449Z,-1.40
2022-12-19T08:30:19.866Z,-1.35
2022-12-19T08:32:48.452Z,-1.43
2022-12-19T08:35:16.511Z,-1.33
2022-12-19T08:37:44.634Z,-1.34
2022-12-19T08:40:13.945Z,-1.27
2022-12-19T08:42:42.543Z,-1.21
2022-12-19T08:45:12.133Z,-1.24
2022-12-19T08:47:40.309Z,-1.07
2022-12-19T08:50:09.375Z,-1.06
2022-12-19T08:52:37.226Z,-0.97
2022-12-19T08:55:06.299Z,-0.94
2022-12-19T08:57:37.215Z,-0.89
2022-12-19T09:00:06.562Z,-0.94
2022-12-19T09:02:37.266Z,-0.88
2022-12-19T09:06:01.765Z,-0.74
2022-12-19T09:07:56.749Z,-0.79
2022-12-19T09:10:24.709Z,-0.72
2022-12-19T09:12:57.706Z,-0.87
2022-12-19T09:15:26.071Z,-0.67
2022-12-19T09:17:55.543Z,-0.63
2022-12-19T09:20:23.895Z,-0.64
2022-12-19T09:22:51.991Z,-0.66
2022-12-19T09:25:19.908Z,-0.48
2022-12-19T09:28:25.833Z,-0.54
2022-12-19T09:30:36.180Z,-0.47
2022-12-19T09:33:06.062Z,-0.37
2022-12-19T09:35:34.109Z,-0.49
2022-12-19T09:38:03.578Z,-0.37
2022-12-19T09:40:46.386Z,-0.38
2022-12-19T09:43:36.557Z,-0.35
2022-12-19T09:46:16.441Z,-0.26
2022-12-19T09:48:52.586Z,-0.17
2022-12-19T09:51:33.434Z,-0.12
2022-12-19T09:54:10.708Z,-0.09
2022-12-19T09:56:46.343Z,-0.10
2022-12-19T09:59:22.604Z,0.07
2022-12-19T10:01:59.822Z,0.09
2022-12-19T10:04:34.389Z,0.15
2022-12-19T10:07:22.272Z,0.24
2022-12-19T10:12:41.187Z,0.36
2022-12-19T10:13:12.923Z,0.41
2022-12-19T10:15:56.141Z,0.56
2022-12-19T10:18:45.024Z,0.69
2022-12-19T10:21:50.826Z,0.58
2022-12-19T10:24:34.750Z,0.60
2022-12-19T10:27:12.982Z,0.69
2022-12-19T10:29:58.055Z,0.79
2022-12-19T10:32:33.548Z,0.78
2022-12-19T10:35:02.066Z,0.87
2022-12-19T10:37:47.290Z,0.87
2022-12-19T10:40:28.272Z,0.90
2022-12-19T10:43:05.259Z,1.03
2022-12-19T10:45:46.867Z,1.11
2022-12-19T10:48:20.888Z,1.21
2022-12-19T10:50:56.536Z,1.19
2022-12-19T10:53:30.206Z,1.39
2022-12-19T10:56:02.045Z,1.40
2022-12-19T10:58:35.221Z,1.62
2022-12-19T11:01:13.167Z,1.58
2022-12-19T11:03:43.848Z,1.54
2022-12-19T11:06:47.486Z,1.30
2022-12-19T11:09:27.323Z,1.40
2022-12-19T11:15:49.474Z,1.38
2022-12-19T11:19:47.335Z,1.46
2022-12-19T11:24:17.349Z,1.41
2022-12-19T11:29:26.190Z,1.42
2022-12-19T11:29:32.145Z,1.33
2022-12-19T11:29:44.432Z,1.33
2022-12-19T11:31:51.041Z,1.37
2022-12-19T11:32:44.574Z,1.26
2022-12-19T11:35:21.974Z,1.33
2022-12-19T11:37:57.541Z,1.28
2022-12-19T11:40:33.861Z,1.31
2022-12-19T11:43:43.025Z,1.34
2022-12-19T11:46:04.035Z,1.33
2022-12-19T11:48:40.943Z,1.35
2022-12-19T11:51:21.005Z,1.35
2022-12-19T11:53:57.455Z,1.30
2022-12-19T11:56:27.892Z,1.29
2022-12-19T11:59:01.194Z,1.31
2022-12-19T12:01:48.463Z,1.34
2022-12-19T12:04:56.111Z,1.26
2022-12-19T12:07:56.632Z,1.22
2022-12-19T12:13:22.347Z,1.23
2022-12-19T12:28:29.190Z,1.19
2022-12-19T12:28:37.591Z,1.33
2022-12-19T12:31:09.555Z,1.33
2022-12-19T12:31:13.160Z,1.30
2022-12-19T12:31:44.721Z,1.27
2022-12-19T12:32:00.729Z,1.28
2022-12-19T12:35:33.125Z,1.21
2022-12-19T12:38:18.916Z,1.20
2022-12-19T12:40:53.498Z,1.18
2022-12-19T12:43:36.604Z,1.18
2022-12-19T12:46:05.579Z,1.14
2022-12-19T12:48:39.955Z,1.19
2022-12-19T12:51:10.368Z,1.23
2022-12-19T12:53:41.908Z,1.21
2022-12-19T12:56:13.422Z,1.21
2022-12-19T12:59:06.927Z,1.22
2022-12-19T13:01:38.052Z,1.26
2022-12-19T13:04:22.638Z,1.23
2022-12-19T13:07:24.105Z,1.20
2022-12-19T13:10:08.419Z,1.28
2022-12-19T13:13:00.794Z,1.27
2022-12-19T13:15:37.327Z,1.19
2022-12-19T13:18:29.992Z,1.34
2022-12-19T13:21:03.114Z,1.29
2022-12-19T13:23:47.502Z,1.30
2022-12-19T13:26:44.875Z,1.29
2022-12-19T13:29:28.445Z,1.30
2022-12-19T13:32:13.410Z,1.38
2022-12-19T13:35:06.287Z,1.38
2022-12-19T13:39:54.016Z,1.39
2022-12-19T13:40:35.557Z,1.35
2022-12-19T13:43:32.208Z,1.32
2022-12-19T13:46:02.469Z,1.36
2022-12-19T13:48:33.080Z,1.31
2022-12-19T13:51:05.444Z,1.37
2022-12-19T13:53:36.366Z,1.38
2022-12-19T13:56:06.625Z,1.41
2022-12-19T13:58:46.631Z,1.42
2022-12-19T14:01:21.021Z,1.39
2022-12-19T14:03:51.578Z,1.38
2022-12-19T14:06:22.528Z,1.42
2022-12-19T14:09:37.377Z,1.38
2022-12-19T14:13:38.786Z,1.42
2022-12-19T14:15:13.373Z,1.41
2022-12-19T14:17:41.814Z,1.41
2022-12-19T14:22:07.079Z,1.42
2022-12-19T14:23:07.501Z,1.42
2022-12-19T14:28:14.383Z,1.53
2022-12-19T14:28:41.523Z,1.46
2022-12-19T14:31:15.597Z,1.46
2022-12-19T14:34:04.694Z,1.51
2022-12-19T14:36:39.048Z,1.54
2022-12-19T14:39:23.964Z,1.59
2022-12-19T14:42:56.997Z,1.57
2022-12-19T14:52:34.499Z,1.61
2022-12-19T14:54:03.491Z,1.68
2022-12-19T14:54:07.520Z,1.72
2022-12-19T14:57:28.972Z,1.81
2022-12-19T15:00:50.875Z,1.86
2022-12-19T15:03:23.111Z,1.92
2022-12-19T15:05:52.054Z,1.89
2022-12-19T15:10:07.482Z,1.92
2022-12-19T15:11:58.123Z,1.91
2022-12-19T15:14:56.456Z,2.03
2022-12-19T15:17:27.716Z,2.07
2022-12-19T15:19:56.261Z,2.03
2022-12-19T15:22:25.524Z,2.02
2022-12-19T15:24:54.242Z,2.11
2022-12-19T15:27:23.186Z,2.06
2022-12-19T15:29:53.370Z,2.22
2022-12-19T15:32:21.663Z,2.25
2022-12-19T15:34:51.613Z,2.20
2022-12-19T15:37:20.088Z,2.21
2022-12-19T15:39:47.941Z,2.24
2022-12-19T15:42:19.969Z,2.24
2022-12-19T15:44:49.820Z,2.32
2022-12-19T15:47:22.985Z,2.29
2022-12-19T15:49:51.192Z,2.30
2022-12-19T15:52:20.833Z,2.30
2022-12-19T15:54:50.536Z,2.31
2022-12-19T15:57:25.540Z,2.33
2022-12-19T15:59:53.755Z,2.43
2022-12-19T16:02:24.811Z,2.44
2022-12-19T16:04:58.339Z,2.39
2022-12-19T16:07:31.704Z,2.48
2022-12-19T16:09:59.681Z,2.40
2022-12-19T16:12:37.906Z,2.50
2022-12-19T16:15:07.888Z,2.41
2022-12-19T16:17:38.475Z,2.51
2022-12-19T16:20:16.789Z,2.46
2022-12-19T16:22:47.978Z,2.43
2022-12-19T16:25:16.519Z,2.47
2022-12-19T16:27:45.953Z,2.53
2022-12-19T16:30:23.363Z,2.49
2022-12-19T16:32:52.669Z,2.50
2022-12-19T16:35:40.320Z,2.50
2022-12-19T16:38:10.363Z,2.59
2022-12-19T16:40:38.449Z,2.62
2022-12-19T16:43:07.965Z,2.57
2022-12-19T16:45:36.354Z,2.64
2022-12-19T16:48:19.357Z,2.60
2022-12-19T16:50:47.470Z,2.67
2022-12-19T16:53:16.491Z,2.71
2022-12-19T16:55:45.575Z,2.74
2022-12-19T16:58:17.664Z,2.72
2022-12-19T17:00:46.363Z,2.72
2022-12-19T17:03:28.774Z,2.81
2022-12-19T17:05:57.530Z,2.88
2022-12-19T17:08:25.776Z,2.95
2022-12-19T17:10:54.698Z,2.91
2022-12-19T17:13:23.624Z,2.93
2022-12-19T17:15:56.653Z,3.01
2022-12-19T17:18:32.867Z,2.95
2022-12-19T17:21:15.040Z,2.97
2022-12-19T17:23:49.712Z,2.97
2022-12-19T17:26:21.211Z,2.95
2022-12-19T17:29:01.177Z,2.98
2022-12-19T17:31:30.283Z,3.00
2022-12-19T17:34:47.976Z,3.04
2022-12-19T17:37:23.017Z,3.10
2022-12-19T17:39:54.402Z,3.05
2022-12-19T17:42:35.317Z,3.09
2022-12-19T17:45:06.092Z,3.12
2022-12-19T17:50:39.598Z,3.06
2022-12-19T17:53:13.148Z,3.09
2022-12-19T17:58:52.508Z,3.13
2022-12-19T18:01:22.856Z,3.15
2022-12-19T18:03:53.404Z,3.25
2022-12-19T18:06:23.041Z,3.29
2022-12-19T18:08:53.642Z,3.27
2022-12-19T18:11:24.541Z,3.29
2022-12-19T18:13:53.441Z,3.20
2022-12-19T18:16:25.875Z,3.23
2022-12-19T18:18:54.860Z,3.21
2022-12-19T18:21:27.534Z,3.23
2022-12-19T18:23:55.747Z,3.24
2022-12-19T18:26:23.997Z,3.30
2022-12-19T18:28:52.055Z,3.36
2022-12-19T18:31:25.891Z,3.41
2022-12-19T18:34:06.967Z,3.46
2022-12-19T18:36:41.165Z,3.45
2022-12-19T18:39:20.492Z,3.42
2022-12-19T18:41:48.681Z,3.36
2022-12-19T18:44:16.844Z,3.43
2022-12-19T18:46:45.305Z,3.41
2022-12-19T18:49:14.705Z,3.37
2022-12-19T18:51:44.842Z,3.49
2022-12-19T18:54:17.689Z,3.46
2022-12-19T18:56:46.259Z,3.44
2022-12-19T18:59:14.484Z,3.44
2022-12-19T19:01:47.401Z,3.47
2022-12-19T19:04:17.889Z,3.49
2022-12-19T19:06:52.004Z,3.56
2022-12-19T19:09:31.988Z,3.61
2022-12-19T19:11:59.875Z,3.58
2022-12-19T19:14:27.857Z,3.56
2022-12-19T19:16:56.072Z,3.64
2022-12-19T19:19:24.299Z,3.63
2022-12-19T19:21:53.436Z,3.64
2022-12-19T19:24:23.575Z,3.61
2022-12-19T19:26:51.529Z,3.61
2022-12-19T19:29:20.217Z,3.61
2022-12-19T19:31:51.393Z,3.56
2022-12-19T19:34:22.808Z,3.57
2022-12-19T19:36:56.240Z,3.61
2022-12-19T19:39:25.185Z,3.56
2022-12-19T19:41:53.650Z,3.56
2022-12-19T19:44:21.563Z,3.51
2022-12-19T19:46:49.944Z,3.58
2022-12-19T19:49:18.069Z,3.55
2022-12-19T19:51:46.190Z,3.52
2022-12-19T19:54:15.803Z,3.48
2022-12-19T19:56:43.811Z,3.50
2022-12-19T19:59:12.352Z,3.64
2022-12-19T20:01:40.530Z,3.58
2022-12-19T20:04:08.820Z,3.54
2022-12-19T20:06:37.132Z,3.57
2022-12-19T20:09:05.848Z,3.57
2022-12-19T20:11:35.185Z,3.55
2022-12-19T20:14:04.750Z,3.51
2022-12-19T20:16:33.653Z,3.53
2022-12-19T20:19:01.713Z,3.55
2022-12-19T20:21:30.773Z,3.58
2022-12-19T20:23:59.004Z,3.54
2022-12-19T20:26:29.393Z,3.53
2022-12-19T20:28:58.969Z,3.50
2022-12-19T20:31:27.400Z,3.54
2022-12-19T20:33:56.878Z,3.43
2022-12-19T20:36:25.459Z,3.44
2022-12-19T20:38:53.596Z,3.44
2022-12-19T20:41:21.771Z,3.50
2022-12-19T20:43:49.649Z,3.39
2022-12-19T20:46:23.425Z,3.36
2022-12-19T20:48:52.453Z,3.33
2022-12-19T20:51:22.202Z,3.33
2022-12-19T20:53:55.674Z,3.26
2022-12-19T20:56:27.849Z,3.30
2022-12-19T20:58:56.016Z,3.13
2022-12-19T21:01:26.708Z,3.09
2022-12-19T21:03:55.442Z,3.07
2022-12-19T21:06:27.492Z,3.11
2022-12-19T21:08:56.342Z,3.20
2022-12-19T21:11:24.971Z,3.17
2022-12-19T21:13:53.360Z,3.10
2022-12-19T21:16:23.746Z,3.04
2022-12-19T21:18:58.895Z,2.98
2022-12-19T21:21:27.973Z,2.91
2022-12-19T21:23:57.281Z,2.98
2022-12-19T21:26:26.811Z,2.98
2022-12-19T21:28:57.911Z,2.92
2022-12-19T21:31:28.733Z,2.94
2022-12-19T21:34:00.376Z,2.99
2022-12-19T21:36:29.994Z,2.97
2022-12-19T21:39:00.152Z,3.07
2022-12-19T21:41:28.300Z,2.92
2022-12-19T21:44:00.816Z,2.88
2022-12-19T21:46:33.495Z,2.71
2022-12-19T21:49:03.231Z,2.79
2022-12-19T21:51:33.320Z,2.82
2022-12-19T21:54:02.788Z,2.82
2022-12-19T21:56:40.794Z,2.93
2022-12-19T21:59:12.319Z,2.94
2022-12-19T22:01:41.478Z,3.00
2022-12-19T22:04:13.976Z,3.09
2022-12-19T22:06:42.255Z,3.13
2022-12-19T22:09:14.107Z,3.13
2022-12-19T22:11:44.451Z,3.14
2022-12-19T22:14:13.748Z,3.13
2022-12-19T22:16:42.296Z,3.14
2022-12-19T22:19:13.654Z,3.10
2022-12-19T22:21:41.932Z,3.04
2022-12-19T22:24:13.278Z,3.08
2022-12-19T22:26:41.327Z,3.06
2022-12-19T22:29:10.740Z,3.11
2022-12-19T22:31:39.847Z,3.18
2022-12-19T22:34:10.775Z,3.17
2022-12-19T22:36:45.115Z,3.16
2022-12-19T22:39:14.757Z,3.26
2022-12-19T22:41:43.682Z,3.24
2022-12-19T22:44:20.678Z,3.25
2022-12-19T22:46:52.574Z,3.17
2022-12-19T22:49:21.009Z,3.20
2022-12-19T22:52:00.361Z,3.24
2022-12-19T22:54:28.675Z,3.20
2022-12-19T22:56:58.714Z,3.22
2022-12-19T22:59:27.097Z,3.17
2022-12-19T23:01:59.055Z,3.22
2022-12-19T23:04:28.239Z,3.19
2022-12-19T23:06:57.835Z,3.21
2022-12-19T23:09:25.806Z,3.26
2022-12-19T23:11:53.731Z,3.25
2022-12-19T23:14:21.878Z,3.29
2022-12-19T23:16:49.970Z,3.24
2022-12-19T23:19:18.784Z,3.29
2022-12-19T23:21:47.181Z,3.26
2022-12-19T23:24:16.527Z,3.28
2022-12-19T23:26:44.430Z,3.33
2022-12-19T23:29:14.318Z,3.30
2022-12-19T23:31:43.049Z,3.28
2022-12-19T23:34:11.556Z,3.37
2022-12-19T23:39:29.578Z,3.36
2022-12-19T23:41:57.461Z,3.35
2022-12-19T23:44:26.074Z,3.40
2022-12-19T23:47:00.884Z,3.41
2022-12-19T23:49:30.966Z,3.39
2022-12-19T23:51:58.732Z,3.44
2022-12-19T23:54:26.660Z,3.49
2022-12-19T23:56:55.749Z,3.53
2022-12-19T23:59:23.463Z,3.49
